sensor_id;sensor_type;location;lat;lon;timestamp;P1;durP1;ratioP1;P2;durP2;ratioP2
60653;SDS011;46476;53.614;10.048;2022-10-04T00:02:20;6.95;;;1.60;;
60653;SDS011;46476;53.614;10.048;2022-10-04T00:05:03;3.85;;;0.98;;
60653;SDS011;46476;53.614;10.048;2022-10-04T00:07:33;3.38;;;0.93;;
60653;SDS011;46476;53.614;10.048;2022-10-04T00:10:03;4.82;;;1.00;;
60653;SDS011;46476;53.614;10.048;2022-10-04T00:12:44;3.28;;;1.00;;
60653;SDS011;46476;53.614;10.048;2022-10-04T00:15:23;3.65;;;1.20;;
60653;SDS011;46476;53.614;10.048;2022-10-04T00:18:05;4.57;;;0.82;;
60653;SDS011;46476;53.614;10.048;2022-10-04T00:25:58;5.28;;;1.10;;
60653;SDS011;46476;53.614;10.048;2022-10-04T00:28:26;5.18;;;1.08;;
60653;SDS011;46476;53.614;10.048;2022-10-04T00:36:30;5.40;;;1.08;;
60653;SDS011;46476;53.614;10.048;2022-10-04T00:41:28;3.22;;;1.00;;
60653;SDS011;46476;53.614;10.048;2022-10-04T00:47:02;4.03;;;1.05;;
60653;SDS011;46476;53.614;10.048;2022-10-04T00:49:42;6.15;;;1.88;;
60653;SDS011;46476;53.614;10.048;2022-10-04T00:52:14;5.20;;;1.30;;
60653;SDS011;46476;53.614;10.048;2022-10-04T00:54:48;4.43;;;0.80;;
60653;SDS011;46476;53.614;10.048;2022-10-04T00:57:25;2.38;;;0.95;;
60653;SDS011;46476;53.614;10.048;2022-10-04T00:59:57;6.40;;;1.13;;
60653;SDS011;46476;53.614;10.048;2022-10-04T01:02:30;3.95;;;0.90;;
60653;SDS011;46476;53.614;10.048;2022-10-04T01:10:01;2.97;;;1.10;;
60653;SDS011;46476;53.614;10.048;2022-10-04T01:12:37;3.13;;;1.00;;
60653;SDS011;46476;53.614;10.048;2022-10-04T01:15:29;4.15;;;1.05;;
60653;SDS011;46476;53.614;10.048;2022-10-04T01:23:15;4.63;;;1.20;;
60653;SDS011;46476;53.614;10.048;2022-10-04T01:25:55;3.60;;;1.00;;
60653;SDS011;46476;53.614;10.048;2022-10-04T01:28:21;5.68;;;1.15;;
60653;SDS011;46476;53.614;10.048;2022-10-04T01:30:46;4.47;;;1.17;;
60653;SDS011;46476;53.614;10.048;2022-10-04T01:33:11;3.88;;;0.90;;
60653;SDS011;46476;53.614;10.048;2022-10-04T01:35:37;3.22;;;0.95;;
60653;SDS011;46476;53.614;10.048;2022-10-04T01:38:03;6.95;;;1.40;;
60653;SDS011;46476;53.614;10.048;2022-10-04T01:40:35;4.55;;;1.20;;
60653;SDS011;46476;53.614;10.048;2022-10-04T01:43:16;3.88;;;0.82;;
60653;SDS011;46476;53.614;10.048;2022-10-04T01:45:50;4.63;;;1.08;;
60653;SDS011;46476;53.614;10.048;2022-10-04T01:48:23;2.63;;;1.13;;
60653;SDS011;46476;53.614;10.048;2022-10-04T01:50:56;4.05;;;1.20;;
60653;SDS011;46476;53.614;10.048;2022-10-04T01:53:29;6.80;;;1.67;;
60653;SDS011;46476;53.614;10.048;2022-10-04T01:56:11;4.78;;;1.50;;
60653;SDS011;46476;53.614;10.048;2022-10-04T01:58:41;2.58;;;1.20;;
60653;SDS011;46476;53.614;10.048;2022-10-04T02:01:21;3.42;;;1.35;;
60653;SDS011;46476;53.614;10.048;2022-10-04T02:03:58;6.45;;;1.55;;
60653;SDS011;46476;53.614;10.048;2022-10-04T02:06:28;3.40;;;1.23;;
60653;SDS011;46476;53.614;10.048;2022-10-04T02:09:01;4.28;;;1.38;;
60653;SDS011;46476;53.614;10.048;2022-10-04T02:11:34;4.38;;;1.65;;
60653;SDS011;46476;53.614;10.048;2022-10-04T02:14:03;4.63;;;2.22;;
60653;SDS011;46476;53.614;10.048;2022-10-04T02:16:34;5.00;;;1.67;;
60653;SDS011;46476;53.614;10.048;2022-10-04T02:19:03;4.05;;;1.30;;
60653;SDS011;46476;53.614;10.048;2022-10-04T02:21:31;4.43;;;1.30;;
60653;SDS011;46476;53.614;10.048;2022-10-04T02:24:00;3.63;;;1.27;;
60653;SDS011;46476;53.614;10.048;2022-10-04T02:26:26;4.43;;;1.38;;
60653;SDS011;46476;53.614;10.048;2022-10-04T02:28:51;5.25;;;2.28;;
60653;SDS011;46476;53.614;10.048;2022-10-04T02:31:18;7.13;;;1.60;;
60653;SDS011;46476;53.614;10.048;2022-10-04T02:34:05;2.90;;;1.33;;
60653;SDS011;46476;53.614;10.048;2022-10-04T02:36:30;3.95;;;1.38;;
60653;SDS011;46476;53.614;10.048;2022-10-04T02:39:02;5.63;;;1.70;;
60653;SDS011;46476;53.614;10.048;2022-10-04T02:41:32;6.45;;;1.65;;
60653;SDS011;46476;53.614;10.048;2022-10-04T02:44:02;5.57;;;1.80;;
60653;SDS011;46476;53.614;10.048;2022-10-04T02:46:44;5.47;;;1.77;;
60653;SDS011;46476;53.614;10.048;2022-10-04T02:49:32;5.93;;;1.52;;
60653;SDS011;46476;53.614;10.048;2022-10-04T02:54:56;5.47;;;1.50;;
60653;SDS011;46476;53.614;10.048;2022-10-04T02:57:27;3.92;;;1.35;;
60653;SDS011;46476;53.614;10.048;2022-10-04T03:05:40;6.53;;;1.40;;
60653;SDS011;46476;53.614;10.048;2022-10-04T03:08:06;3.08;;;1.20;;
60653;SDS011;46476;53.614;10.048;2022-10-04T03:10:31;6.07;;;1.25;;
60653;SDS011;46476;53.614;10.048;2022-10-04T03:12:59;7.40;;;1.33;;
60653;SDS011;46476;53.614;10.048;2022-10-04T03:15:24;6.32;;;1.30;;
60653;SDS011;46476;53.614;10.048;2022-10-04T03:17:50;3.90;;;1.00;;
60653;SDS011;46476;53.614;10.048;2022-10-04T03:20:15;5.18;;;1.65;;
60653;SDS011;46476;53.614;10.048;2022-10-04T03:22:45;2.80;;;1.10;;
60653;SDS011;46476;53.614;10.048;2022-10-04T03:25:17;5.35;;;1.30;;
60653;SDS011;46476;53.614;10.048;2022-10-04T03:27:47;7.45;;;1.70;;
60653;SDS011;46476;53.614;10.048;2022-10-04T03:30:15;2.50;;;0.90;;
60653;SDS011;46476;53.614;10.048;2022-10-04T03:32:44;6.00;;;1.30;;
60653;SDS011;46476;53.614;10.048;2022-10-04T03:35:32;3.05;;;1.00;;
60653;SDS011;46476;53.614;10.048;2022-10-04T03:38:03;5.35;;;1.20;;
60653;SDS011;46476;53.614;10.048;2022-10-04T03:40:33;4.53;;;1.40;;
60653;SDS011;46476;53.614;10.048;2022-10-04T03:43:02;3.47;;;1.38;;
60653;SDS011;46476;53.614;10.048;2022-10-04T03:45:29;2.88;;;1.15;;
60653;SDS011;46476;53.614;10.048;2022-10-04T03:48:01;3.75;;;1.30;;
60653;SDS011;46476;53.614;10.048;2022-10-04T03:50:32;4.97;;;1.30;;
60653;SDS011;46476;53.614;10.048;2022-10-04T03:53:04;3.90;;;1.10;;
60653;SDS011;46476;53.614;10.048;2022-10-04T03:55:38;4.68;;;1.38;;
60653;SDS011;46476;53.614;10.048;2022-10-04T03:58:08;3.45;;;1.13;;
60653;SDS011;46476;53.614;10.048;2022-10-04T04:00:42;5.28;;;1.40;;
60653;SDS011;46476;53.614;10.048;2022-10-04T04:03:16;3.95;;;1.17;;
60653;SDS011;46476;53.614;10.048;2022-10-04T04:05:47;4.35;;;1.20;;
60653;SDS011;46476;53.614;10.048;2022-10-04T04:08:23;8.02;;;1.55;;
60653;SDS011;46476;53.614;10.048;2022-10-04T04:10:57;4.57;;;1.20;;
60653;SDS011;46476;53.614;10.048;2022-10-04T04:13:26;7.28;;;2.97;;
60653;SDS011;46476;53.614;10.048;2022-10-04T04:15:59;4.47;;;1.65;;
60653;SDS011;46476;53.614;10.048;2022-10-04T04:18:26;6.55;;;1.30;;
60653;SDS011;46476;53.614;10.048;2022-10-04T04:20:55;5.97;;;1.25;;
60653;SDS011;46476;53.614;10.048;2022-10-04T04:23:43;4.45;;;1.25;;
60653;SDS011;46476;53.614;10.048;2022-10-04T04:26:19;7.50;;;1.77;;
60653;SDS011;46476;53.614;10.048;2022-10-04T04:28:50;4.13;;;1.65;;
60653;SDS011;46476;53.614;10.048;2022-10-04T04:33:59;4.25;;;1.50;;
60653;SDS011;46476;53.614;10.048;2022-10-04T04:36:27;4.20;;;1.50;;
60653;SDS011;46476;53.614;10.048;2022-10-04T04:39:05;4.47;;;1.40;;
60653;SDS011;46476;53.614;10.048;2022-10-04T04:41:59;4.80;;;1.50;;
60653;SDS011;46476;53.614;10.048;2022-10-04T04:44:28;5.22;;;1.50;;
60653;SDS011;46476;53.614;10.048;2022-10-04T04:46:53;5.68;;;1.60;;
60653;SDS011;46476;53.614;10.048;2022-10-04T04:49:20;4.30;;;1.48;;
60653;SDS011;46476;53.614;10.048;2022-10-04T04:51:48;5.45;;;1.58;;
60653;SDS011;46476;53.614;10.048;2022-10-04T04:54:15;5.47;;;1.40;;
60653;SDS011;46476;53.614;10.048;2022-10-04T04:56:46;6.60;;;1.60;;
60653;SDS011;46476;53.614;10.048;2022-10-04T04:59:15;7.57;;;1.70;;
60653;SDS011;46476;53.614;10.048;2022-10-04T05:01:43;4.35;;;1.60;;
60653;SDS011;46476;53.614;10.048;2022-10-04T05:06:37;4.38;;;1.20;;
60653;SDS011;46476;53.614;10.048;2022-10-04T05:14:35;5.38;;;1.63;;
60653;SDS011;46476;53.614;10.048;2022-10-04T05:17:03;5.97;;;1.60;;
60653;SDS011;46476;53.614;10.048;2022-10-04T05:19:31;6.85;;;1.90;;
60653;SDS011;46476;53.614;10.048;2022-10-04T05:22:01;7.50;;;1.42;;
60653;SDS011;46476;53.614;10.048;2022-10-04T05:24:32;2.45;;;1.10;;
60653;SDS011;46476;53.614;10.048;2022-10-04T05:27:17;6.82;;;1.33;;
60653;SDS011;46476;53.614;10.048;2022-10-04T05:29:58;3.92;;;1.50;;
60653;SDS011;46476;53.614;10.048;2022-10-04T05:32:39;5.15;;;1.67;;
60653;SDS011;46476;53.614;10.048;2022-10-04T05:35:19;5.78;;;1.83;;
60653;SDS011;46476;53.614;10.048;2022-10-04T05:37:57;5.03;;;1.80;;
60653;SDS011;46476;53.614;10.048;2022-10-04T05:43:28;6.90;;;2.10;;
60653;SDS011;46476;53.614;10.048;2022-10-04T05:46:16;5.43;;;1.88;;
60653;SDS011;46476;53.614;10.048;2022-10-04T05:48:43;4.72;;;1.88;;
60653;SDS011;46476;53.614;10.048;2022-10-04T05:53:46;7.28;;;2.25;;
60653;SDS011;46476;53.614;10.048;2022-10-04T05:56:32;11.05;;;2.20;;
60653;SDS011;46476;53.614;10.048;2022-10-04T05:59:27;6.35;;;1.98;;
60653;SDS011;46476;53.614;10.048;2022-10-04T06:23:00;6.07;;;2.40;;
60653;SDS011;46476;53.614;10.048;2022-10-04T06:25:33;8.30;;;2.63;;
60653;SDS011;46476;53.614;10.048;2022-10-04T06:28:18;6.28;;;2.72;;
60653;SDS011;46476;53.614;10.048;2022-10-04T06:33:26;8.43;;;2.55;;
60653;SDS011;46476;53.614;10.048;2022-10-04T06:36:06;5.88;;;2.50;;
60653;SDS011;46476;53.614;10.048;2022-10-04T06:38:50;7.50;;;2.20;;
60653;SDS011;46476;53.614;10.048;2022-10-04T06:50:03;7.72;;;2.28;;
60653;SDS011;46476;53.614;10.048;2022-10-04T06:58:15;6.72;;;2.80;;
60653;SDS011;46476;53.614;10.048;2022-10-04T07:06:26;9.77;;;2.60;;
60653;SDS011;46476;53.614;10.048;2022-10-04T07:08:58;7.55;;;2.72;;
60653;SDS011;46476;53.614;10.048;2022-10-04T07:11:29;8.85;;;3.10;;
60653;SDS011;46476;53.614;10.048;2022-10-04T07:21:50;14.18;;;3.53;;
60653;SDS011;46476;53.614;10.048;2022-10-04T07:24:25;9.32;;;3.15;;
60653;SDS011;46476;53.614;10.048;2022-10-04T07:26:57;10.32;;;3.63;;
60653;SDS011;46476;53.614;10.048;2022-10-04T07:29:27;7.72;;;3.53;;
60653;SDS011;46476;53.614;10.048;2022-10-04T07:34:32;9.25;;;3.70;;
60653;SDS011;46476;53.614;10.048;2022-10-04T07:36:59;6.95;;;3.08;;
60653;SDS011;46476;53.614;10.048;2022-10-04T07:39:37;6.05;;;3.17;;
60653;SDS011;46476;53.614;10.048;2022-10-04T07:44:45;9.77;;;3.55;;
60653;SDS011;46476;53.614;10.048;2022-10-04T07:47:21;8.45;;;3.30;;
60653;SDS011;46476;53.614;10.048;2022-10-04T07:49:53;9.38;;;3.40;;
60653;SDS011;46476;53.614;10.048;2022-10-04T07:57:43;7.22;;;3.00;;
60653;SDS011;46476;53.614;10.048;2022-10-04T08:00:16;6.53;;;3.10;;
60653;SDS011;46476;53.614;10.048;2022-10-04T08:02:59;7.15;;;2.95;;
60653;SDS011;46476;53.614;10.048;2022-10-04T08:05:36;7.70;;;2.70;;
60653;SDS011;46476;53.614;10.048;2022-10-04T08:10:45;7.15;;;2.95;;
60653;SDS011;46476;53.614;10.048;2022-10-04T08:16:08;6.70;;;3.05;;
60653;SDS011;46476;53.614;10.048;2022-10-04T08:25:11;9.57;;;3.10;;
60653;SDS011;46476;53.614;10.048;2022-10-04T08:28:03;7.22;;;2.80;;
60653;SDS011;46476;53.614;10.048;2022-10-04T08:39:53;9.32;;;2.92;;
60653;SDS011;46476;53.614;10.048;2022-10-04T08:44:13;7.20;;;3.00;;
60653;SDS011;46476;53.614;10.048;2022-10-04T08:51:48;5.57;;;3.15;;
60653;SDS011;46476;53.614;10.048;2022-10-04T08:54:43;8.30;;;2.97;;
60653;SDS011;46476;53.614;10.048;2022-10-04T09:00:27;7.80;;;2.80;;
60653;SDS011;46476;53.614;10.048;2022-10-04T09:05:57;8.52;;;3.33;;
60653;SDS011;46476;53.614;10.048;2022-10-04T09:11:38;8.32;;;3.00;;
60653;SDS011;46476;53.614;10.048;2022-10-04T09:19:39;6.32;;;2.85;;
60653;SDS011;46476;53.614;10.048;2022-10-04T09:22:45;7.78;;;2.53;;
60653;SDS011;46476;53.614;10.048;2022-10-04T09:30:52;9.15;;;3.42;;
60653;SDS011;46476;53.614;10.048;2022-10-04T09:39:29;8.05;;;3.00;;
60653;SDS011;46476;53.614;10.048;2022-10-04T09:42:16;5.85;;;2.88;;
60653;SDS011;46476;53.614;10.048;2022-10-04T09:45:09;9.38;;;2.70;;
60653;SDS011;46476;53.614;10.048;2022-10-04T09:47:48;6.72;;;2.65;;
60653;SDS011;46476;53.614;10.048;2022-10-04T09:53:30;6.05;;;2.33;;
60653;SDS011;46476;53.614;10.048;2022-10-04T09:56:07;10.13;;;2.58;;
60653;SDS011;46476;53.614;10.048;2022-10-04T10:04:35;7.05;;;2.17;;
60653;SDS011;46476;53.614;10.048;2022-10-04T10:10:35;8.88;;;2.75;;
60653;SDS011;46476;53.614;10.048;2022-10-04T10:16:25;7.18;;;2.80;;
60653;SDS011;46476;53.614;10.048;2022-10-04T10:25:32;9.10;;;3.25;;
60653;SDS011;46476;53.614;10.048;2022-10-04T10:28:16;9.20;;;2.70;;
60653;SDS011;46476;53.614;10.048;2022-10-04T10:39:32;7.47;;;2.92;;
60653;SDS011;46476;53.614;10.048;2022-10-04T10:42:19;10.93;;;3.40;;
60653;SDS011;46476;53.614;10.048;2022-10-04T10:50:51;9.77;;;2.97;;
60653;SDS011;46476;53.614;10.048;2022-10-04T10:53:28;10.23;;;2.80;;
60653;SDS011;46476;53.614;10.048;2022-10-04T10:59:05;8.23;;;3.03;;
60653;SDS011;46476;53.614;10.048;2022-10-04T11:16:45;11.52;;;3.42;;
60653;SDS011;46476;53.614;10.048;2022-10-04T11:30:20;6.90;;;2.78;;
60653;SDS011;46476;53.614;10.048;2022-10-04T11:35:33;5.53;;;2.58;;
60653;SDS011;46476;53.614;10.048;2022-10-04T11:46:09;7.07;;;2.28;;
60653;SDS011;46476;53.614;10.048;2022-10-04T11:48:45;6.50;;;2.08;;
60653;SDS011;46476;53.614;10.048;2022-10-04T11:57:39;6.70;;;2.00;;
60653;SDS011;46476;53.614;10.048;2022-10-04T12:00:13;7.90;;;1.90;;
60653;SDS011;46476;53.614;10.048;2022-10-04T12:06:08;6.20;;;2.42;;
60653;SDS011;46476;53.614;10.048;2022-10-04T12:09:17;6.43;;;1.80;;
60653;SDS011;46476;53.614;10.048;2022-10-04T12:11:59;6.55;;;2.05;;
60653;SDS011;46476;53.614;10.048;2022-10-04T12:29:09;3.70;;;1.20;;
60653;SDS011;46476;53.614;10.048;2022-10-04T12:31:58;5.25;;;2.00;;
60653;SDS011;46476;53.614;10.048;2022-10-04T12:34:45;3.90;;;1.40;;
60653;SDS011;46476;53.614;10.048;2022-10-04T12:43:00;5.40;;;1.73;;
60653;SDS011;46476;53.614;10.048;2022-10-04T12:56:30;4.18;;;1.30;;
60653;SDS011;46476;53.614;10.048;2022-10-04T13:02:10;4.95;;;1.38;;
60653;SDS011;46476;53.614;10.048;2022-10-04T13:10:24;7.70;;;1.77;;
60653;SDS011;46476;53.614;10.048;2022-10-04T13:15:56;3.40;;;1.38;;
60653;SDS011;46476;53.614;10.048;2022-10-04T13:21:15;3.30;;;1.23;;
60653;SDS011;46476;53.614;10.048;2022-10-04T13:24:10;4.40;;;1.40;;
60653;SDS011;46476;53.614;10.048;2022-10-04T13:26:55;7.53;;;1.65;;
60653;SDS011;46476;53.614;10.048;2022-10-04T13:29:40;6.05;;;1.65;;
60653;SDS011;46476;53.614;10.048;2022-10-04T13:34:56;6.55;;;1.80;;
60653;SDS011;46476;53.614;10.048;2022-10-04T13:37:41;5.60;;;1.25;;
60653;SDS011;46476;53.614;10.048;2022-10-04T13:40:22;3.45;;;1.40;;
60653;SDS011;46476;53.614;10.048;2022-10-04T13:43:07;4.35;;;1.40;;
60653;SDS011;46476;53.614;10.048;2022-10-04T13:46:05;6.82;;;1.63;;
60653;SDS011;46476;53.614;10.048;2022-10-04T13:48:45;4.15;;;1.48;;
60653;SDS011;46476;53.614;10.048;2022-10-04T13:51:37;6.57;;;1.42;;
60653;SDS011;46476;53.614;10.048;2022-10-04T13:57:19;2.70;;;1.50;;
60653;SDS011;46476;53.614;10.048;2022-10-04T14:00:09;4.55;;;1.63;;
60653;SDS011;46476;53.614;10.048;2022-10-04T14:08:19;4.30;;;1.30;;
60653;SDS011;46476;53.614;10.048;2022-10-04T14:19:36;2.88;;;1.20;;
60653;SDS011;46476;53.614;10.048;2022-10-04T14:25:02;3.67;;;1.58;;
60653;SDS011;46476;53.614;10.048;2022-10-04T14:39:01;3.78;;;1.38;;
60653;SDS011;46476;53.614;10.048;2022-10-04T14:44:50;4.07;;;1.60;;
60653;SDS011;46476;53.614;10.048;2022-10-04T14:47:57;4.55;;;1.45;;
60653;SDS011;46476;53.614;10.048;2022-10-04T14:53:19;3.60;;;1.13;;
60653;SDS011;46476;53.614;10.048;2022-10-04T15:04:06;3.53;;;1.10;;
60653;SDS011;46476;53.614;10.048;2022-10-04T15:17:26;6.53;;;1.30;;
60653;SDS011;46476;53.614;10.048;2022-10-04T15:20:00;2.83;;;1.05;;
60653;SDS011;46476;53.614;10.048;2022-10-04T15:22:35;5.00;;;1.20;;
60653;SDS011;46476;53.614;10.048;2022-10-04T15:25:35;5.13;;;1.20;;
60653;SDS011;46476;53.614;10.048;2022-10-04T15:28:06;4.22;;;1.20;;
60653;SDS011;46476;53.614;10.048;2022-10-04T15:30:57;6.82;;;1.20;;
60653;SDS011;46476;53.614;10.048;2022-10-04T15:33:53;5.57;;;1.23;;
60653;SDS011;46476;53.614;10.048;2022-10-04T15:38:56;3.05;;;1.30;;
60653;SDS011;46476;53.614;10.048;2022-10-04T15:41:34;2.10;;;1.08;;
60653;SDS011;46476;53.614;10.048;2022-10-04T15:56:42;2.97;;;1.42;;
60653;SDS011;46476;53.614;10.048;2022-10-04T16:04:56;4.78;;;1.83;;
60653;SDS011;46476;53.614;10.048;2022-10-04T16:10:30;4.05;;;2.00;;
60653;SDS011;46476;53.614;10.048;2022-10-04T16:18:48;3.17;;;1.35;;
60653;SDS011;46476;53.614;10.048;2022-10-04T16:29:25;4.13;;;1.58;;
60653;SDS011;46476;53.614;10.048;2022-10-04T16:32:20;3.30;;;1.50;;
60653;SDS011;46476;53.614;10.048;2022-10-04T16:34:59;3.95;;;1.80;;
60653;SDS011;46476;53.614;10.048;2022-10-04T16:37:51;3.67;;;1.60;;
60653;SDS011;46476;53.614;10.048;2022-10-04T16:40:26;5.15;;;1.38;;
60653;SDS011;46476;53.614;10.048;2022-10-04T16:43:10;2.85;;;1.42;;
60653;SDS011;46476;53.614;10.048;2022-10-04T16:48:48;5.43;;;1.92;;
60653;SDS011;46476;53.614;10.048;2022-10-04T16:57:05;5.00;;;2.15;;
60653;SDS011;46476;53.614;10.048;2022-10-04T17:10:37;4.13;;;2.10;;
60653;SDS011;46476;53.614;10.048;2022-10-04T17:13:29;3.13;;;1.95;;
60653;SDS011;46476;53.614;10.048;2022-10-04T17:16:11;5.80;;;2.25;;
60653;SDS011;46476;53.614;10.048;2022-10-04T17:24:29;8.93;;;2.95;;
60653;SDS011;46476;53.614;10.048;2022-10-04T17:35:45;4.60;;;2.08;;
60653;SDS011;46476;53.614;10.048;2022-10-04T17:38:24;5.32;;;2.38;;
60653;SDS011;46476;53.614;10.048;2022-10-04T17:46:28;6.45;;;2.25;;
60653;SDS011;46476;53.614;10.048;2022-10-04T17:48:57;4.88;;;2.10;;
60653;SDS011;46476;53.614;10.048;2022-10-04T17:51:54;8.60;;;2.90;;
60653;SDS011;46476;53.614;10.048;2022-10-04T17:54:44;6.22;;;2.50;;
60653;SDS011;46476;53.614;10.048;2022-10-04T18:00:06;7.22;;;2.90;;
60653;SDS011;46476;53.614;10.048;2022-10-04T18:05:27;4.72;;;2.45;;
60653;SDS011;46476;53.614;10.048;2022-10-04T18:08:16;6.63;;;2.50;;
60653;SDS011;46476;53.614;10.048;2022-10-04T18:10:50;5.30;;;2.40;;
60653;SDS011;46476;53.614;10.048;2022-10-04T18:13:34;4.75;;;2.03;;
60653;SDS011;46476;53.614;10.048;2022-10-04T18:22:14;5.97;;;2.40;;
60653;SDS011;46476;53.614;10.048;2022-10-04T18:25:00;6.38;;;2.58;;
60653;SDS011;46476;53.614;10.048;2022-10-04T18:27:46;4.18;;;2.40;;
60653;SDS011;46476;53.614;10.048;2022-10-04T18:30:15;6.63;;;2.90;;
60653;SDS011;46476;53.614;10.048;2022-10-04T18:32:44;7.38;;;2.88;;
60653;SDS011;46476;53.614;10.048;2022-10-04T18:37:52;4.93;;;2.88;;
60653;SDS011;46476;53.614;10.048;2022-10-04T18:40:22;6.07;;;2.60;;
60653;SDS011;46476;53.614;10.048;2022-10-04T18:42:59;3.92;;;2.60;;
60653;SDS011;46476;53.614;10.048;2022-10-04T18:45:26;4.93;;;2.70;;
60653;SDS011;46476;53.614;10.048;2022-10-04T18:47:57;4.63;;;2.88;;
60653;SDS011;46476;53.614;10.048;2022-10-04T18:56:39;6.35;;;3.28;;
60653;SDS011;46476;53.614;10.048;2022-10-04T18:59:34;6.10;;;3.25;;
60653;SDS011;46476;53.614;10.048;2022-10-04T19:05:46;7.15;;;3.30;;
60653;SDS011;46476;53.614;10.048;2022-10-04T19:11:16;7.47;;;2.88;;
60653;SDS011;46476;53.614;10.048;2022-10-04T19:22:21;8.48;;;2.83;;
60653;SDS011;46476;53.614;10.048;2022-10-04T19:25:12;6.13;;;2.72;;
60653;SDS011;46476;53.614;10.048;2022-10-04T19:27:48;5.55;;;2.90;;
60653;SDS011;46476;53.614;10.048;2022-10-04T19:30:26;5.18;;;2.67;;
60653;SDS011;46476;53.614;10.048;2022-10-04T19:33:17;8.32;;;3.25;;
60653;SDS011;46476;53.614;10.048;2022-10-04T19:39:10;5.82;;;3.90;;
60653;SDS011;46476;53.614;10.048;2022-10-04T19:47:20;7.70;;;2.90;;
60653;SDS011;46476;53.614;10.048;2022-10-04T19:57:52;6.97;;;3.47;;
60653;SDS011;46476;53.614;10.048;2022-10-04T20:00:32;7.40;;;3.78;;
60653;SDS011;46476;53.614;10.048;2022-10-04T20:02:59;6.63;;;4.10;;
60653;SDS011;46476;53.614;10.048;2022-10-04T20:05:25;5.70;;;3.63;;
60653;SDS011;46476;53.614;10.048;2022-10-04T20:07:51;7.93;;;3.70;;
60653;SDS011;46476;53.614;10.048;2022-10-04T20:18:00;6.57;;;3.85;;
60653;SDS011;46476;53.614;10.048;2022-10-04T20:23:08;6.25;;;3.30;;
60653;SDS011;46476;53.614;10.048;2022-10-04T20:25:57;7.13;;;3.13;;
60653;SDS011;46476;53.614;10.048;2022-10-04T20:31:03;5.00;;;3.40;;
60653;SDS011;46476;53.614;10.048;2022-10-04T20:36:02;6.18;;;3.15;;
60653;SDS011;46476;53.614;10.048;2022-10-04T20:43:56;8.50;;;4.00;;
60653;SDS011;46476;53.614;10.048;2022-10-04T20:46:23;7.85;;;3.72;;
60653;SDS011;46476;53.614;10.048;2022-10-04T20:48:51;5.93;;;3.80;;
60653;SDS011;46476;53.614;10.048;2022-10-04T20:51:18;8.68;;;3.42;;
60653;SDS011;46476;53.614;10.048;2022-10-04T20:53:46;7.53;;;3.35;;
60653;SDS011;46476;53.614;10.048;2022-10-04T20:56:28;6.15;;;3.67;;
60653;SDS011;46476;53.614;10.048;2022-10-04T20:58:56;5.50;;;3.67;;
60653;SDS011;46476;53.614;10.048;2022-10-04T21:01:24;6.38;;;4.05;;
60653;SDS011;46476;53.614;10.048;2022-10-04T21:04:10;8.07;;;3.63;;
60653;SDS011;46476;53.614;10.048;2022-10-04T21:06:51;9.57;;;4.22;;
60653;SDS011;46476;53.614;10.048;2022-10-04T21:09:18;7.00;;;4.20;;
60653;SDS011;46476;53.614;10.048;2022-10-04T21:11:44;8.73;;;4.05;;
60653;SDS011;46476;53.614;10.048;2022-10-04T21:16:51;11.00;;;4.20;;
60653;SDS011;46476;53.614;10.048;2022-10-04T21:30:06;9.07;;;4.10;;
60653;SDS011;46476;53.614;10.048;2022-10-04T21:32:38;7.05;;;4.15;;
60653;SDS011;46476;53.614;10.048;2022-10-04T21:35:04;9.75;;;4.90;;
60653;SDS011;46476;53.614;10.048;2022-10-04T21:37:31;8.45;;;5.07;;
60653;SDS011;46476;53.614;10.048;2022-10-04T21:39:57;10.68;;;4.95;;
60653;SDS011;46476;53.614;10.048;2022-10-04T21:42:22;9.82;;;4.95;;
60653;SDS011;46476;53.614;10.048;2022-10-04T21:44:48;6.53;;;4.00;;
60653;SDS011;46476;53.614;10.048;2022-10-04T21:47:13;8.13;;;3.92;;
60653;SDS011;46476;53.614;10.048;2022-10-04T21:49:39;6.90;;;3.95;;
60653;SDS011;46476;53.614;10.048;2022-10-04T21:52:04;6.15;;;4.18;;
60653;SDS011;46476;53.614;10.048;2022-10-04T21:54:30;6.97;;;3.60;;
60653;SDS011;46476;53.614;10.048;2022-10-04T21:56:55;9.65;;;3.83;;
60653;SDS011;46476;53.614;10.048;2022-10-04T21:59:20;7.68;;;3.38;;
60653;SDS011;46476;53.614;10.048;2022-10-04T22:01:46;6.20;;;3.30;;
60653;SDS011;46476;53.614;10.048;2022-10-04T22:04:11;7.55;;;3.10;;
60653;SDS011;46476;53.614;10.048;2022-10-04T22:06:37;6.70;;;3.05;;
60653;SDS011;46476;53.614;10.048;2022-10-04T22:09:02;6.80;;;3.05;;
60653;SDS011;46476;53.614;10.048;2022-10-04T22:11:28;7.03;;;3.10;;
60653;SDS011;46476;53.614;10.048;2022-10-04T22:13:53;6.93;;;3.25;;
60653;SDS011;46476;53.614;10.048;2022-10-04T22:16:19;5.80;;;3.03;;
60653;SDS011;46476;53.614;10.048;2022-10-04T22:18:44;4.97;;;2.70;;
60653;SDS011;46476;53.614;10.048;2022-10-04T22:21:09;8.13;;;2.80;;
60653;SDS011;46476;53.614;10.048;2022-10-04T22:23:36;5.55;;;2.65;;
60653;SDS011;46476;53.614;10.048;2022-10-04T22:26:17;4.70;;;2.50;;
60653;SDS011;46476;53.614;10.048;2022-10-04T22:28:53;6.22;;;2.75;;
60653;SDS011;46476;53.614;10.048;2022-10-04T22:31:20;4.97;;;2.60;;
60653;SDS011;46476;53.614;10.048;2022-10-04T22:33:50;4.53;;;2.67;;
60653;SDS011;46476;53.614;10.048;2022-10-04T22:36:20;3.67;;;2.40;;
60653;SDS011;46476;53.614;10.048;2022-10-04T22:41:34;5.00;;;2.63;;
60653;SDS011;46476;53.614;10.048;2022-10-04T22:46:42;6.65;;;2.50;;
60653;SDS011;46476;53.614;10.048;2022-10-04T22:49:14;5.47;;;2.75;;
60653;SDS011;46476;53.614;10.048;2022-10-04T22:51:41;3.80;;;2.50;;
60653;SDS011;46476;53.614;10.048;2022-10-04T22:54:10;5.97;;;2.70;;
60653;SDS011;46476;53.614;10.048;2022-10-04T22:56:36;5.63;;;2.78;;
60653;SDS011;46476;53.614;10.048;2022-10-04T22:59:02;5.57;;;2.80;;
60653;SDS011;46476;53.614;10.048;2022-10-04T23:16:58;5.72;;;2.80;;
60653;SDS011;46476;53.614;10.048;2022-10-04T23:19:25;5.40;;;2.90;;
60653;SDS011;46476;53.614;10.048;2022-10-04T23:21:50;6.18;;;2.72;;
60653;SDS011;46476;53.614;10.048;2022-10-04T23:24:20;5.80;;;2.83;;
60653;SDS011;46476;53.614;10.048;2022-10-04T23:26:48;6.75;;;2.85;;
60653;SDS011;46476;53.614;10.048;2022-10-04T23:29:25;4.75;;;2.80;;
60653;SDS011;46476;53.614;10.048;2022-10-04T23:31:54;4.97;;;2.45;;
60653;SDS011;46476;53.614;10.048;2022-10-04T23:34:32;5.57;;;2.42;;
60653;SDS011;46476;53.614;10.048;2022-10-04T23:36:59;5.57;;;2.90;;
60653;SDS011;46476;53.614;10.048;2022-10-04T23:39:29;3.05;;;2.08;;
60653;SDS011;46476;53.614;10.048;2022-10-04T23:41:56;6.15;;;2.33;;
60653;SDS011;46476;53.614;10.048;2022-10-04T23:44:28;6.18;;;2.53;;
60653;SDS011;46476;53.614;10.048;2022-10-04T23:46:57;5.72;;;2.42;;
60653;SDS011;46476;53.614;10.048;2022-10-04T23:49:22;4.57;;;2.60;;
60653;SDS011;46476;53.614;10.048;2022-10-04T23:51:55;5.05;;;2.50;;
60653;SDS011;46476;53.614;10.048;2022-10-04T23:54:23;5.35;;;2.85;;
60653;SDS011;46476;53.614;10.048;2022-10-04T23:56:48;4.90;;;2.67;;
60653;SDS011;46476;53.614;10.048;2022-10-04T23:59:16;6.07;;;2.53;;
